createdAt,value
2018-10-09T00:00:53.580Z,60.50
2018-10-09T00:03:22.384Z,60.57
2018-10-09T00:05:51.239Z,71.57
2018-10-09T00:08:20.074Z,80.00
2018-10-09T00:10:48.986Z,31.87
2018-10-09T00:13:17.810Z,28.70
2018-10-09T00:15:46.675Z,182.40
2018-10-09T00:18:15.518Z,265.53
2018-10-09T00:20:44.359Z,162.17
2018-10-09T00:23:13.203Z,34.83
2018-10-09T00:25:42.030Z,70.20
2018-10-09T00:28:10.879Z,90.30
2018-10-09T00:30:39.746Z,111.60
2018-10-09T00:33:08.570Z,37.43
2018-10-09T00:35:37.440Z,336.27
2018-10-09T00:38:06.497Z,272.63
2018-10-09T00:40:35.349Z,153.50
2018-10-09T00:43:04.199Z,76.63
2018-10-09T00:45:33.010Z,35.63
2018-10-09T00:48:01.843Z,61.40
2018-10-09T00:50:30.678Z,45.53
2018-10-09T00:52:59.533Z,49.23
2018-10-09T00:55:28.436Z,45.37
2018-10-09T00:57:57.296Z,30.80
2018-10-09T01:00:26.159Z,30.60
2018-10-09T01:02:55.038Z,30.33
2018-10-09T01:05:23.914Z,29.50
2018-10-09T01:07:52.823Z,27.27
2018-10-09T01:10:21.684Z,34.10
2018-10-09T01:12:50.583Z,26.70
2018-10-09T01:15:19.438Z,31.33
2018-10-09T01:17:48.340Z,35.77
2018-10-09T01:20:21.322Z,27.57
2018-10-09T01:22:50.195Z,27.80
2018-10-09T01:25:19.101Z,32.63
2018-10-09T01:27:48.728Z,32.53
2018-10-09T01:30:17.573Z,21.83
2018-10-09T01:32:46.421Z,25.00
2018-10-09T01:35:15.272Z,25.17
2018-10-09T01:37:44.117Z,28.60
2018-10-09T01:40:12.978Z,38.77
2018-10-09T01:42:48.525Z,28.10
2018-10-09T01:45:17.437Z,26.20
2018-10-09T01:47:46.318Z,27.00
2018-10-09T01:50:15.177Z,27.53
2018-10-09T01:52:44.062Z,28.00
2018-10-09T01:55:12.918Z,21.60
2018-10-09T01:57:41.835Z,26.50
2018-10-09T02:00:11.375Z,23.70
2018-10-09T02:02:40.578Z,25.50
2018-10-09T02:05:09.621Z,30.80
2018-10-09T02:07:38.507Z,22.30
2018-10-09T02:10:07.633Z,31.93
2018-10-09T02:12:36.533Z,23.37
2018-10-09T02:15:06.015Z,21.30
2018-10-09T02:17:34.861Z,26.70
2018-10-09T02:20:03.699Z,29.50
2018-10-09T02:22:32.580Z,25.73
2018-10-09T02:25:01.455Z,31.20
2018-10-09T02:27:30.299Z,35.00
2018-10-09T02:29:59.203Z,27.30
2018-10-09T02:32:28.086Z,29.43
2018-10-09T02:34:57.071Z,24.40
2018-10-09T02:37:25.898Z,26.37
2018-10-09T02:39:54.795Z,25.73
2018-10-09T02:42:23.631Z,22.93
2018-10-09T02:44:52.532Z,23.17
2018-10-09T02:47:21.378Z,21.93
2018-10-09T02:49:50.239Z,24.00
2018-10-09T02:52:19.094Z,22.30
2018-10-09T02:54:47.994Z,30.40
2018-10-09T02:57:16.851Z,24.83
2018-10-09T02:59:45.683Z,22.63
2018-10-09T03:02:14.567Z,24.37
2018-10-09T03:04:43.478Z,20.57
2018-10-09T03:07:12.378Z,18.47
2018-10-09T03:09:41.251Z,23.70
2018-10-09T03:12:10.143Z,22.57
2018-10-09T03:14:38.989Z,21.97
2018-10-09T03:17:08.410Z,25.30
2018-10-09T03:19:37.273Z,24.80
2018-10-09T03:22:06.130Z,26.97
2018-10-09T03:24:34.978Z,25.30
2018-10-09T03:27:03.819Z,27.30
2018-10-09T03:29:32.675Z,29.43
2018-10-09T03:32:01.543Z,28.77
2018-10-09T03:34:30.467Z,27.83
2018-10-09T03:36:59.302Z,22.87
2018-10-09T03:39:28.166Z,26.93
2018-10-09T03:41:56.985Z,22.67
2018-10-09T03:44:25.875Z,29.53
2018-10-09T03:46:54.718Z,27.03
2018-10-09T03:49:23.598Z,26.47
2018-10-09T03:51:52.554Z,31.13
2018-10-09T03:54:21.401Z,28.60
2018-10-09T03:56:50.236Z,28.97
2018-10-09T03:59:19.263Z,28.87
2018-10-09T04:01:48.245Z,36.93
2018-10-09T04:04:17.183Z,32.87
2018-10-09T04:06:46.076Z,26.83
2018-10-09T04:09:15.083Z,28.40
2018-10-09T04:11:44.184Z,28.77
2018-10-09T04:14:13.055Z,34.30
2018-10-09T04:16:41.886Z,504.37
2018-10-09T04:19:10.767Z,205.50
2018-10-09T04:21:39.656Z,95.53
2018-10-09T04:24:08.519Z,41.53
2018-10-09T04:26:37.403Z,79.83
2018-10-09T04:29:07.227Z,94.00
2018-10-09T04:31:36.084Z,83.60
2018-10-09T04:34:04.991Z,79.23
2018-10-09T04:36:33.861Z,41.67
2018-10-09T04:39:02.759Z,37.87
2018-10-09T04:41:31.595Z,37.07
2018-10-09T04:44:00.464Z,35.50
2018-10-09T04:46:29.363Z,33.93
2018-10-09T04:48:58.249Z,30.50
2018-10-09T04:51:27.143Z,40.57
2018-10-09T04:53:56.342Z,33.43
2018-10-09T04:56:25.231Z,33.80
2018-10-09T04:58:54.177Z,32.33
2018-10-09T05:01:23.038Z,27.20
2018-10-09T05:03:51.878Z,33.63
2018-10-09T05:06:20.887Z,28.70
2018-10-09T05:08:49.746Z,33.10
2018-10-09T05:11:18.695Z,31.13
2018-10-09T05:13:47.562Z,38.33
2018-10-09T05:16:16.439Z,45.13
2018-10-09T05:18:45.350Z,46.97
2018-10-09T05:21:14.220Z,47.23
2018-10-09T05:23:43.139Z,42.40
2018-10-09T05:26:11.999Z,46.67
2018-10-09T05:28:40.915Z,47.80
2018-10-09T05:31:10.101Z,47.67
2018-10-09T05:33:38.940Z,48.67
2018-10-09T05:36:07.843Z,52.87
2018-10-09T05:38:36.763Z,39.50
2018-10-09T05:41:06.194Z,39.53
2018-10-09T05:43:35.095Z,49.87
2018-10-09T05:46:04.076Z,75.50
2018-10-09T05:48:32.947Z,74.10
2018-10-09T05:51:01.827Z,63.83
2018-10-09T05:53:30.714Z,65.63
2018-10-09T05:55:59.576Z,61.93
2018-10-09T05:58:28.535Z,46.43
2018-10-09T06:00:57.394Z,53.33
2018-10-09T06:03:26.347Z,73.67
2018-10-09T06:05:55.257Z,65.33
2018-10-09T06:08:24.155Z,66.37
2018-10-09T06:10:53.019Z,76.57
2018-10-09T06:13:21.910Z,105.90
2018-10-09T06:15:51.015Z,105.60
2018-10-09T06:18:19.952Z,132.27
2018-10-09T06:20:48.837Z,173.63
2018-10-09T06:23:17.954Z,233.53
2018-10-09T06:25:46.957Z,109.97
2018-10-09T06:28:15.831Z,113.43
2018-10-09T06:30:44.698Z,89.93
2018-10-09T06:33:13.553Z,85.70
2018-10-09T06:35:42.382Z,84.10
2018-10-09T06:38:11.224Z,73.93
2018-10-09T06:40:40.249Z,79.83
2018-10-09T06:43:09.124Z,77.30
2018-10-09T06:45:38.038Z,68.70
2018-10-09T06:48:06.948Z,101.70
2018-10-09T06:50:35.873Z,97.87
2018-10-09T06:53:04.695Z,88.77
2018-10-09T06:55:33.592Z,75.90
2018-10-09T06:58:02.449Z,104.20
2018-10-09T07:00:31.344Z,106.93
2018-10-09T07:03:00.231Z,141.73
2018-10-09T07:05:29.083Z,90.27
2018-10-09T07:07:57.980Z,85.57
2018-10-09T07:10:27.466Z,88.00
2018-10-09T07:12:56.328Z,72.97
2018-10-09T07:15:25.163Z,81.87
2018-10-09T07:17:54.064Z,64.30
2018-10-09T07:20:22.959Z,62.53
2018-10-09T07:22:51.878Z,61.60
2018-10-09T07:25:20.732Z,72.83
2018-10-09T07:27:49.603Z,56.33
2018-10-09T07:30:18.473Z,66.97
2018-10-09T07:32:47.593Z,55.93
2018-10-09T07:35:16.456Z,58.10
2018-10-09T07:37:46.218Z,66.77
2018-10-09T07:40:15.061Z,56.67
2018-10-09T07:42:43.928Z,61.40
2018-10-09T07:45:12.837Z,55.40
2018-10-09T07:47:41.727Z,57.27
2018-10-09T07:50:10.640Z,58.73
2018-10-09T07:52:39.690Z,51.40
2018-10-09T07:55:08.499Z,52.30
2018-10-09T07:57:37.370Z,52.37
2018-10-09T08:00:06.265Z,49.17
2018-10-09T08:02:35.127Z,59.20
2018-10-09T08:05:19.014Z,55.37
2018-10-09T08:07:48.061Z,54.60
2018-10-09T08:10:16.929Z,61.17
2018-10-09T08:12:45.866Z,52.43
2018-10-09T08:15:14.996Z,58.30
2018-10-09T08:17:43.930Z,53.37
2018-10-09T08:20:12.798Z,48.37
2018-10-09T08:22:42.282Z,61.97
2018-10-09T08:25:10.967Z,53.67
2018-10-09T08:27:39.880Z,61.30
2018-10-09T08:30:08.736Z,58.70
2018-10-09T08:32:37.587Z,56.50
2018-10-09T08:35:06.416Z,51.70
2018-10-09T08:37:35.843Z,63.63
2018-10-09T08:40:05.324Z,56.57
2018-10-09T08:42:34.166Z,55.30
2018-10-09T08:45:03.011Z,64.13
2018-10-09T08:47:31.928Z,58.53
2018-10-09T08:50:00.799Z,62.90
2018-10-09T08:52:29.666Z,57.00
2018-10-09T08:55:00.769Z,54.20
2018-10-09T08:57:29.710Z,53.63
2018-10-09T08:59:58.474Z,58.40
2018-10-09T09:02:27.383Z,53.33
2018-10-09T09:04:56.223Z,58.90
2018-10-09T09:07:25.068Z,55.97
2018-10-09T09:09:53.914Z,63.30
2018-10-09T09:12:22.824Z,57.97
2018-10-09T09:14:51.692Z,56.50
2018-10-09T09:17:20.644Z,55.03
2018-10-09T09:19:49.500Z,59.90
2018-10-09T09:22:18.365Z,61.07
2018-10-09T09:24:47.269Z,54.17
2018-10-09T09:27:16.345Z,48.40
2018-10-09T09:29:45.188Z,62.20
2018-10-09T09:32:14.157Z,54.50
2018-10-09T09:34:43.025Z,47.80
2018-10-09T09:37:11.871Z,60.53
2018-10-09T09:39:40.800Z,47.47
2018-10-09T09:42:09.717Z,48.53
2018-10-09T09:44:38.652Z,54.27
2018-10-09T09:47:07.534Z,52.20
2018-10-09T09:49:36.487Z,49.90
2018-10-09T09:52:12.021Z,46.83
2018-10-09T09:54:41.091Z,51.83
2018-10-09T09:57:10.025Z,49.63
2018-10-09T09:59:38.866Z,46.23
2018-10-09T10:02:08.149Z,48.57
2018-10-09T10:04:37.041Z,47.93
2018-10-09T10:07:06.146Z,55.73
2018-10-09T10:09:35.028Z,52.20
2018-10-09T10:12:03.888Z,53.17
2018-10-09T10:14:32.779Z,43.93
2018-10-09T10:17:01.665Z,47.30
2018-10-09T10:19:30.572Z,49.73
2018-10-09T10:21:59.440Z,42.63
2018-10-09T10:24:28.330Z,41.40
2018-10-09T10:26:57.167Z,40.23
2018-10-09T10:29:26.037Z,46.60
2018-10-09T10:31:54.928Z,41.67
2018-10-09T10:34:23.801Z,38.20
2018-10-09T10:36:52.682Z,42.80
2018-10-09T10:39:21.574Z,49.20
2018-10-09T10:41:50.472Z,41.63
2018-10-09T10:44:19.336Z,50.00
2018-10-09T10:46:48.198Z,45.60
2018-10-09T10:49:17.159Z,42.40
2018-10-09T10:51:46.032Z,46.60
2018-10-09T10:54:14.900Z,39.27
2018-10-09T10:56:43.795Z,48.73
2018-10-09T10:59:12.831Z,36.97
2018-10-09T11:01:41.750Z,38.90
2018-10-09T11:04:10.566Z,40.10
2018-10-09T11:06:39.394Z,30.27
2018-10-09T11:09:10.113Z,31.43
2018-10-09T11:11:39.077Z,33.43
2018-10-09T11:14:08.073Z,36.50
2018-10-09T11:16:36.911Z,30.40
2018-10-09T11:19:05.785Z,28.10
2018-10-09T11:21:37.045Z,31.53
2018-10-09T11:24:06.114Z,36.23
2018-10-09T11:26:34.958Z,39.13
2018-10-09T11:29:03.798Z,33.20
2018-10-09T11:31:32.772Z,38.10
2018-10-09T11:34:01.684Z,31.17
2018-10-09T11:36:30.556Z,91.07
2018-10-09T11:38:59.444Z,35.50
2018-10-09T11:41:28.314Z,31.30
2018-10-09T11:43:57.147Z,36.10
2018-10-09T11:46:26.040Z,42.63
2018-10-09T11:48:55.010Z,40.60
2018-10-09T11:51:23.883Z,33.17
2018-10-09T11:53:52.839Z,27.90
2018-10-09T11:56:21.780Z,27.03
2018-10-09T11:58:50.697Z,30.23
2018-10-09T12:01:19.636Z,29.13
2018-10-09T12:03:48.614Z,33.03
2018-10-09T12:06:17.788Z,31.37
2018-10-09T12:08:46.775Z,30.30
2018-10-09T12:11:15.579Z,26.80
2018-10-09T12:13:44.468Z,29.43
2018-10-09T12:16:14.128Z,33.40
2018-10-09T12:18:42.988Z,25.70
2018-10-09T12:21:11.867Z,31.57
2018-10-09T12:23:40.747Z,25.70
2018-10-09T12:26:09.646Z,26.83
2018-10-09T12:28:38.489Z,27.33
2018-10-09T12:31:07.362Z,22.50
2018-10-09T12:33:36.243Z,23.10
2018-10-09T12:36:05.187Z,25.33
2018-10-09T12:38:35.939Z,27.07
2018-10-09T12:41:04.940Z,23.20
2018-10-09T12:43:34.215Z,22.97
2018-10-09T12:46:03.120Z,26.83
2018-10-09T12:48:32.138Z,26.77
2018-10-09T12:51:00.986Z,28.27
2018-10-09T12:53:29.827Z,28.60
2018-10-09T12:55:58.776Z,28.17
2018-10-09T12:58:27.751Z,24.43
2018-10-09T13:00:56.701Z,21.87
2018-10-09T13:03:25.657Z,25.13
2018-10-09T13:06:01.322Z,27.63
2018-10-09T13:08:30.183Z,22.33
2018-10-09T13:10:59.135Z,22.37
2018-10-09T13:13:28.070Z,23.00
2018-10-09T13:15:56.988Z,24.03
2018-10-09T13:18:25.874Z,28.70
2018-10-09T13:20:54.996Z,25.97
2018-10-09T13:23:23.816Z,27.07
2018-10-09T13:25:52.725Z,28.53
2018-10-09T13:28:21.584Z,22.23
2018-10-09T13:30:50.472Z,29.50
2018-10-09T13:33:19.319Z,33.73
2018-10-09T13:35:48.637Z,23.07
2018-10-09T13:38:17.587Z,25.53
2018-10-09T13:40:46.422Z,25.47
2018-10-09T13:43:15.285Z,25.93
2018-10-09T13:45:44.202Z,33.77
2018-10-09T13:48:13.028Z,24.67
2018-10-09T13:50:41.909Z,24.90
2018-10-09T13:53:10.735Z,31.17
2018-10-09T13:55:39.552Z,25.17
2018-10-09T13:58:08.457Z,24.43
2018-10-09T14:00:37.318Z,20.53
2018-10-09T14:03:06.361Z,21.20
2018-10-09T14:05:35.154Z,33.33
2018-10-09T14:08:03.999Z,18.83
2018-10-09T14:10:32.891Z,26.90
2018-10-09T14:13:01.866Z,20.03
2018-10-09T14:15:30.872Z,21.10
2018-10-09T14:17:59.767Z,21.17
2018-10-09T14:20:28.716Z,19.37
2018-10-09T14:22:57.713Z,27.03
2018-10-09T14:25:26.612Z,29.23
2018-10-09T14:27:55.520Z,25.30
2018-10-09T14:30:24.975Z,36.87
2018-10-09T14:32:54.465Z,31.03
2018-10-09T14:35:23.609Z,37.50
2018-10-09T14:37:52.508Z,34.03
2018-10-09T14:40:21.550Z,34.20
2018-10-09T14:42:50.439Z,33.00
2018-10-09T14:45:19.693Z,27.13
2018-10-09T14:47:48.591Z,26.33
2018-10-09T14:50:17.547Z,31.37
2018-10-09T14:52:46.367Z,29.30
2018-10-09T14:55:15.291Z,25.97
2018-10-09T14:57:44.127Z,31.00
2018-10-09T15:00:13.024Z,23.30
2018-10-09T15:02:42.224Z,23.40
2018-10-09T15:05:11.556Z,19.07
2018-10-09T15:07:40.472Z,23.40
2018-10-09T15:10:09.527Z,21.07
2018-10-09T15:12:45.676Z,26.03
2018-10-09T15:15:14.782Z,17.57
2018-10-09T15:17:43.686Z,17.80
2018-10-09T15:20:13.453Z,17.70
2018-10-09T15:22:42.355Z,21.07
2018-10-09T15:25:11.344Z,18.77
2018-10-09T15:27:40.947Z,25.37
2018-10-09T15:30:09.847Z,19.23
2018-10-09T15:32:39.975Z,21.50
2018-10-09T15:35:08.874Z,20.03
2018-10-09T15:37:37.837Z,15.60
2018-10-09T15:40:06.739Z,18.33
2018-10-09T15:42:35.567Z,25.83
2018-10-09T15:45:04.477Z,29.53
2018-10-09T15:47:33.298Z,23.43
2018-10-09T15:50:02.146Z,23.00
2018-10-09T15:52:31.096Z,23.17
2018-10-09T15:55:00.562Z,25.67
2018-10-09T15:57:29.436Z,25.23
2018-10-09T15:59:58.385Z,19.00
2018-10-09T16:02:27.251Z,26.50
2018-10-09T16:04:56.146Z,35.20
2018-10-09T16:07:25.002Z,27.20
2018-10-09T16:09:53.894Z,26.10
2018-10-09T16:12:22.867Z,27.23
2018-10-09T16:14:51.732Z,33.17
2018-10-09T16:17:20.664Z,23.47
2018-10-09T16:19:49.616Z,28.70
2018-10-09T16:22:18.487Z,23.00
2018-10-09T16:24:47.351Z,30.13
2018-10-09T16:27:16.224Z,20.70
2018-10-09T16:29:45.235Z,25.20
2018-10-09T16:32:14.351Z,22.97
2018-10-09T16:34:43.259Z,23.83
2018-10-09T16:37:12.127Z,23.20
2018-10-09T16:39:40.981Z,23.77
2018-10-09T16:42:09.845Z,23.00
2018-10-09T16:44:38.714Z,36.10
2018-10-09T16:47:07.787Z,30.30
2018-10-09T16:49:38.011Z,22.70
2018-10-09T16:52:07.152Z,27.20
2018-10-09T16:54:36.034Z,26.70
2018-10-09T16:57:04.904Z,25.37
2018-10-09T16:59:33.824Z,28.67
2018-10-09T17:02:02.761Z,30.70
2018-10-09T17:04:31.775Z,30.13
2018-10-09T17:07:00.620Z,29.27
2018-10-09T17:09:29.504Z,31.80
2018-10-09T17:11:58.368Z,37.33
2018-10-09T17:14:27.258Z,29.10
2018-10-09T17:16:56.165Z,25.77
2018-10-09T17:19:25.063Z,30.57
2018-10-09T17:21:53.963Z,29.70
2018-10-09T17:24:22.874Z,24.33
2018-10-09T17:26:51.824Z,32.23
2018-10-09T17:29:20.653Z,34.33
2018-10-09T17:31:49.811Z,29.93
2018-10-09T17:34:18.672Z,30.97
2018-10-09T17:36:47.596Z,31.40
2018-10-09T17:39:16.548Z,31.20
2018-10-09T17:41:45.403Z,31.70
2018-10-09T17:44:14.311Z,31.87
2018-10-09T17:46:43.244Z,29.17
2018-10-09T17:49:12.125Z,33.77
2018-10-09T17:51:41.152Z,38.33
2018-10-09T17:54:10.117Z,28.33
2018-10-09T17:56:39.036Z,27.83
2018-10-09T17:59:07.946Z,31.10
2018-10-09T18:01:36.811Z,33.83
2018-10-09T18:04:05.695Z,27.80
2018-10-09T18:06:35.469Z,30.70
2018-10-09T18:09:07.329Z,29.87
2018-10-09T18:11:36.265Z,36.83
2018-10-09T18:14:05.193Z,48.70
2018-10-09T18:16:34.093Z,33.20
2018-10-09T18:19:03.152Z,33.60
2018-10-09T18:21:32.278Z,39.27
2018-10-09T18:24:01.164Z,38.50
2018-10-09T18:26:30.024Z,113.30
2018-10-09T18:28:58.974Z,56.10
2018-10-09T18:31:28.121Z,46.97
2018-10-09T18:33:56.994Z,45.60
2018-10-09T18:36:25.876Z,44.63
2018-10-09T18:38:54.901Z,44.63
2018-10-09T18:41:23.897Z,52.43
2018-10-09T18:43:52.708Z,56.63
2018-10-09T18:46:21.582Z,42.80
2018-10-09T18:48:50.527Z,49.40
2018-10-09T18:51:19.388Z,60.33
2018-10-09T18:53:48.291Z,49.70
2018-10-09T18:56:17.139Z,48.80
2018-10-09T18:58:46.044Z,50.97
2018-10-09T19:01:14.936Z,50.73
2018-10-09T19:03:43.820Z,51.47
2018-10-09T19:06:12.735Z,48.67
2018-10-09T19:08:41.704Z,56.80
2018-10-09T19:11:11.088Z,43.57
2018-10-09T19:13:39.956Z,48.87
2018-10-09T19:16:08.864Z,49.97
2018-10-09T19:18:37.771Z,44.73
2018-10-09T19:21:06.885Z,47.83
2018-10-09T19:23:36.162Z,45.10
2018-10-09T19:26:05.119Z,44.50
2018-10-09T19:28:34.012Z,52.10
2018-10-09T19:31:02.892Z,47.20
2018-10-09T19:33:31.879Z,44.03
2018-10-09T19:36:00.889Z,44.07
2018-10-09T19:38:29.795Z,42.50
2018-10-09T19:40:59.043Z,44.60
2018-10-09T19:43:27.925Z,36.80
2018-10-09T19:45:56.804Z,43.13
2018-10-09T19:48:25.721Z,42.10
2018-10-09T19:50:54.711Z,49.90
2018-10-09T19:53:23.588Z,43.77
2018-10-09T19:55:52.508Z,48.17
2018-10-09T19:58:28.205Z,53.17
2018-10-09T20:00:59.776Z,56.00
2018-10-09T20:03:28.709Z,54.23
2018-10-09T20:05:57.571Z,47.40
2018-10-09T20:08:26.544Z,51.17
2018-10-09T20:10:55.707Z,54.00
2018-10-09T20:13:24.618Z,60.10
2018-10-09T20:15:53.492Z,55.53
2018-10-09T20:18:22.626Z,54.33
2018-10-09T20:20:51.677Z,56.63
2018-10-09T20:23:20.494Z,56.00
2018-10-09T20:25:49.424Z,65.63
2018-10-09T20:28:18.271Z,59.97
2018-10-09T20:30:47.227Z,67.23
2018-10-09T20:33:17.160Z,63.83
2018-10-09T20:35:45.974Z,56.93
2018-10-09T20:38:15.635Z,95.87
2018-10-09T20:40:44.538Z,71.27
2018-10-09T20:43:13.428Z,62.97
2018-10-09T20:45:42.448Z,60.73
2018-10-09T20:48:11.374Z,64.17
2018-10-09T20:50:40.306Z,59.13
2018-10-09T20:53:09.103Z,56.70
2018-10-09T20:55:41.559Z,79.23
2018-10-09T20:58:11.544Z,76.37
2018-10-09T21:00:40.763Z,72.40
2018-10-09T21:03:09.641Z,63.13
2018-10-09T21:05:38.620Z,55.40
2018-10-09T21:08:07.459Z,54.03
2018-10-09T21:10:36.513Z,62.20
2018-10-09T21:13:05.796Z,59.07
2018-10-09T21:15:34.688Z,55.93
2018-10-09T21:18:03.723Z,58.93
2018-10-09T21:20:32.502Z,57.67
2018-10-09T21:23:01.458Z,66.13
2018-10-09T21:25:30.366Z,54.70
2018-10-09T21:27:59.271Z,48.50
2018-10-09T21:30:28.170Z,60.27
2018-10-09T21:32:57.111Z,51.80
2018-10-09T21:35:26.125Z,57.30
2018-10-09T21:37:55.024Z,52.60
2018-10-09T21:40:23.967Z,74.63
2018-10-09T21:42:52.822Z,61.13
2018-10-09T21:45:21.715Z,63.73
2018-10-09T21:47:56.008Z,61.33
2018-10-09T21:50:24.919Z,57.63
2018-10-09T21:52:53.777Z,59.27
2018-10-09T21:55:22.937Z,53.03
2018-10-09T21:57:51.809Z,65.57
2018-10-09T22:00:20.771Z,60.00
2018-10-09T22:02:49.616Z,59.57
2018-10-09T22:05:18.503Z,67.37
2018-10-09T22:07:47.383Z,55.07
2018-10-09T22:10:16.296Z,68.03
2018-10-09T22:12:45.158Z,59.87
2018-10-09T22:15:14.032Z,69.27
2018-10-09T22:17:42.906Z,69.10
2018-10-09T22:20:11.798Z,60.83
2018-10-09T22:22:40.635Z,63.40
2018-10-09T22:25:09.512Z,58.27
2018-10-09T22:27:38.359Z,55.73
2018-10-09T22:30:07.223Z,69.53
2018-10-09T22:32:36.062Z,66.20
2018-10-09T22:35:04.910Z,77.60
2018-10-09T22:37:33.751Z,83.57
2018-10-09T22:40:02.606Z,71.70
2018-10-09T22:42:31.465Z,72.60
2018-10-09T22:45:00.351Z,75.33
2018-10-09T22:47:29.215Z,89.57
2018-10-09T22:49:58.079Z,83.53
2018-10-09T22:52:26.948Z,74.43
2018-10-09T22:54:55.881Z,72.30
2018-10-09T22:57:24.757Z,73.17
2018-10-09T22:59:53.647Z,76.87
2018-10-09T23:02:22.479Z,72.60
2018-10-09T23:04:51.334Z,71.77
2018-10-09T23:07:20.154Z,89.90
2018-10-09T23:09:49.049Z,77.57
2018-10-09T23:12:17.940Z,73.67
2018-10-09T23:14:47.051Z,78.03
2018-10-09T23:17:15.919Z,65.40
2018-10-09T23:19:44.829Z,66.30
2018-10-09T23:22:13.896Z,72.17
2018-10-09T23:24:42.759Z,63.43
2018-10-09T23:27:11.587Z,65.43
2018-10-09T23:29:40.459Z,70.73
2018-10-09T23:32:09.326Z,64.17
2018-10-09T23:34:38.166Z,65.63
2018-10-09T23:37:07.006Z,66.90
2018-10-09T23:39:35.857Z,66.50
2018-10-09T23:42:04.740Z,65.03
2018-10-09T23:44:33.585Z,63.57
2018-10-09T23:47:02.500Z,70.47
2018-10-09T23:49:31.334Z,72.87
2018-10-09T23:52:00.232Z,75.03
2018-10-09T23:54:35.915Z,80.83
2018-10-09T23:57:04.783Z,79.90
2018-10-09T23:59:33.622Z,77.07
